createdAt,value
2018-03-14T00:00:47.907Z,5.00
2018-03-14T00:03:16.092Z,5.00
2018-03-14T00:05:43.520Z,5.00
2018-03-14T00:08:10.936Z,5.00
2018-03-14T00:10:39.132Z,5.00
2018-03-14T00:13:06.564Z,5.00
2018-03-14T00:15:33.999Z,5.00
2018-03-14T00:18:01.424Z,5.00
2018-03-14T00:20:29.620Z,5.00
2018-03-14T00:22:57.063Z,5.00
2018-03-14T00:25:24.495Z,5.10
2018-03-14T00:27:51.936Z,5.10
2018-03-14T00:30:19.369Z,5.00
2018-03-14T00:32:47.550Z,5.10
2018-03-14T00:35:14.980Z,5.10
2018-03-14T00:37:42.419Z,5.10
2018-03-14T00:40:09.846Z,5.10
2018-03-14T00:42:38.046Z,5.00
2018-03-14T00:45:05.485Z,5.00
2018-03-14T00:47:32.891Z,5.00
2018-03-14T00:50:00.332Z,5.10
2018-03-14T00:52:28.532Z,5.10
2018-03-14T00:54:55.963Z,5.10
2018-03-14T00:57:23.412Z,5.10
2018-03-14T00:59:50.832Z,5.10
2018-03-14T01:02:18.268Z,5.10
2018-03-14T01:04:45.704Z,5.10
2018-03-14T01:07:13.156Z,5.00
2018-03-14T01:09:40.564Z,5.00
2018-03-14T01:12:08.795Z,5.00
2018-03-14T01:14:36.219Z,5.00
2018-03-14T01:17:03.648Z,5.00
2018-03-14T01:19:31.083Z,5.00
2018-03-14T01:21:58.501Z,5.00
2018-03-14T01:24:25.928Z,5.10
2018-03-14T01:26:54.119Z,5.10
2018-03-14T01:29:21.544Z,5.00
2018-03-14T01:31:49.039Z,5.10
2018-03-14T01:34:16.481Z,5.10
2018-03-14T01:36:43.904Z,5.00
2018-03-14T01:39:11.399Z,5.00
2018-03-14T01:41:38.750Z,5.00
2018-03-14T01:44:06.244Z,5.00
2018-03-14T01:46:33.684Z,5.00
2018-03-14T01:49:01.104Z,5.00
2018-03-14T01:51:28.524Z,5.00
2018-03-14T01:53:56.021Z,5.00
2018-03-14T01:56:23.441Z,5.00
2018-03-14T01:58:50.868Z,5.00
2018-03-14T02:01:18.284Z,4.90
2018-03-14T02:03:45.712Z,5.00
2018-03-14T02:06:13.913Z,4.90
2018-03-14T02:08:41.336Z,5.00
2018-03-14T02:11:08.778Z,4.90
2018-03-14T02:13:36.228Z,4.90
2018-03-14T02:16:03.648Z,4.90
2018-03-14T02:18:31.852Z,4.80
2018-03-14T02:20:59.276Z,4.80
2018-03-14T02:23:26.696Z,4.80
2018-03-14T02:25:54.124Z,4.70
2018-03-14T02:28:22.332Z,4.60
2018-03-14T02:30:49.781Z,4.60
2018-03-14T02:33:17.232Z,4.60
2018-03-14T02:35:44.652Z,4.60
2018-03-14T02:38:12.095Z,4.60
2018-03-14T02:40:39.524Z,4.60
2018-03-14T02:43:06.940Z,4.60
2018-03-14T02:45:34.372Z,4.60
2018-03-14T02:48:02.560Z,4.60
2018-03-14T02:50:29.988Z,4.60
2018-03-14T02:52:57.425Z,4.60
2018-03-14T02:55:25.613Z,4.60
2018-03-14T02:57:53.031Z,4.60
2018-03-14T03:00:20.469Z,4.60
2018-03-14T03:02:47.904Z,4.70
2018-03-14T03:05:16.116Z,4.70
2018-03-14T03:07:43.528Z,4.70
2018-03-14T03:10:10.964Z,4.70
2018-03-14T03:12:38.404Z,4.70
2018-03-14T03:15:05.829Z,4.70
2018-03-14T03:17:34.020Z,4.70
2018-03-14T03:20:01.468Z,4.70
2018-03-14T03:22:28.892Z,4.70
2018-03-14T03:24:56.316Z,4.70
2018-03-14T03:27:24.514Z,4.60
2018-03-14T03:29:51.957Z,4.60
2018-03-14T03:32:19.408Z,4.60
2018-03-14T03:34:46.812Z,4.60
2018-03-14T03:37:14.247Z,4.60
2018-03-14T03:39:41.673Z,4.50
2018-03-14T03:42:09.860Z,4.50
2018-03-14T03:44:37.284Z,4.50
2018-03-14T03:47:05.487Z,4.50
2018-03-14T03:49:32.900Z,4.50
2018-03-14T03:52:00.329Z,4.50
2018-03-14T03:54:27.787Z,4.40
2018-03-14T03:56:55.231Z,4.40
2018-03-14T03:59:22.647Z,4.50
2018-03-14T04:01:50.852Z,4.40
2018-03-14T04:04:18.268Z,4.40
2018-03-14T04:06:45.700Z,4.50
2018-03-14T04:09:13.133Z,4.40
2018-03-14T04:11:40.584Z,4.40
2018-03-14T04:14:08.017Z,4.40
2018-03-14T04:16:35.477Z,4.30
2018-03-14T04:19:02.892Z,4.30
2018-03-14T04:21:31.083Z,4.30
2018-03-14T04:23:58.507Z,4.30
2018-03-14T04:26:25.944Z,4.30
2018-03-14T04:28:53.384Z,4.30
2018-03-14T04:31:20.827Z,4.30
2018-03-14T04:33:48.274Z,4.20
2018-03-14T04:36:15.724Z,4.20
2018-03-14T04:38:43.139Z,4.20
2018-03-14T04:41:11.353Z,4.20
2018-03-14T04:43:38.775Z,4.10
2018-03-14T04:46:06.211Z,4.20
2018-03-14T04:48:33.636Z,4.20
2018-03-14T04:51:01.065Z,4.20
2018-03-14T04:53:29.264Z,4.30
2018-03-14T04:55:56.680Z,4.20
2018-03-14T04:58:24.108Z,4.20
2018-03-14T05:00:52.305Z,4.10
2018-03-14T05:03:19.721Z,4.00
2018-03-14T05:05:47.152Z,4.00
2018-03-14T05:08:15.352Z,4.00
2018-03-14T05:10:42.796Z,4.00
2018-03-14T05:13:10.249Z,4.00
2018-03-14T05:15:37.708Z,4.00
2018-03-14T05:18:05.137Z,4.10
2018-03-14T05:20:32.561Z,4.10
2018-03-14T05:23:00.001Z,4.20
2018-03-14T05:25:27.426Z,4.20
2018-03-14T05:27:54.865Z,4.20
2018-03-14T05:30:22.307Z,4.20
2018-03-14T05:32:49.721Z,4.20
2018-03-14T05:35:17.926Z,4.10
2018-03-14T05:37:45.351Z,4.10
2018-03-14T05:40:12.792Z,4.20
2018-03-14T05:42:40.240Z,4.20
2018-03-14T05:45:07.672Z,4.20
2018-03-14T05:47:35.100Z,4.20
2018-03-14T05:50:02.538Z,4.20
2018-03-14T05:52:30.733Z,4.10
2018-03-14T05:54:58.168Z,4.10
2018-03-14T05:57:25.592Z,4.20
2018-03-14T05:59:53.032Z,4.30
2018-03-14T06:02:21.208Z,4.40
2018-03-14T06:04:48.632Z,4.40
2018-03-14T06:07:16.058Z,4.60
2018-03-14T06:09:44.243Z,4.50
2018-03-14T06:12:11.676Z,4.40
2018-03-14T06:14:39.861Z,4.50
2018-03-14T06:17:07.293Z,4.50
2018-03-14T06:19:34.729Z,4.50
2018-03-14T06:22:02.164Z,4.60
2018-03-14T06:24:29.632Z,4.70
2018-03-14T06:26:57.052Z,4.70
2018-03-14T06:29:24.481Z,4.70
2018-03-14T06:31:51.963Z,4.70
2018-03-14T06:34:19.388Z,4.60
2018-03-14T06:36:46.836Z,4.60
2018-03-14T06:39:14.252Z,4.60
2018-03-14T06:41:41.663Z,4.80
2018-03-14T06:44:09.855Z,5.00
2018-03-14T06:46:37.281Z,5.00
2018-03-14T06:49:05.488Z,5.10
2018-03-14T06:51:32.908Z,5.10
2018-03-14T06:54:00.363Z,5.00
2018-03-14T06:56:27.812Z,5.00
2018-03-14T06:59:07.051Z,5.10
2018-03-14T07:01:47.217Z,5.20
2018-03-14T07:04:37.208Z,5.20
2018-03-14T07:07:04.699Z,5.20
2018-03-14T07:09:32.123Z,5.30
2018-03-14T07:11:59.557Z,5.30
2018-03-14T07:14:26.984Z,5.40
2018-03-14T07:16:54.412Z,5.40
2018-03-14T07:19:21.828Z,5.40
2018-03-14T07:21:50.016Z,5.50
2018-03-14T07:24:17.460Z,5.50
2018-03-14T07:26:44.867Z,5.50
2018-03-14T07:29:13.067Z,5.80
2018-03-14T07:31:40.489Z,5.80
2018-03-14T07:34:07.916Z,5.80
2018-03-14T07:36:36.111Z,5.90
2018-03-14T07:39:03.536Z,5.90
2018-03-14T07:41:30.968Z,6.00
2018-03-14T07:43:58.403Z,6.00
2018-03-14T07:46:26.577Z,6.00
2018-03-14T07:48:54.000Z,6.00
2018-03-14T07:51:22.201Z,6.00
2018-03-14T07:53:49.633Z,6.00
2018-03-14T07:56:17.056Z,6.10
2018-03-14T07:58:44.467Z,6.10
2018-03-14T08:01:12.702Z,6.20
2018-03-14T08:03:40.136Z,6.20
2018-03-14T08:06:07.556Z,6.30
2018-03-14T08:08:34.981Z,6.30
2018-03-14T08:11:02.422Z,6.40
2018-03-14T08:13:29.945Z,6.50
2018-03-14T08:15:58.024Z,6.30
2018-03-14T08:18:25.441Z,6.30
2018-03-14T08:20:53.636Z,6.40
2018-03-14T08:23:21.058Z,6.40
2018-03-14T08:25:48.488Z,6.50
2018-03-14T08:28:16.680Z,6.80
2018-03-14T08:30:44.104Z,6.70
2018-03-14T08:33:11.579Z,6.70
2018-03-14T08:35:38.976Z,6.80
2018-03-14T08:38:07.160Z,7.00
2018-03-14T08:40:34.588Z,7.00
2018-03-14T08:43:02.008Z,7.10
2018-03-14T08:45:30.207Z,7.20
2018-03-14T08:47:57.633Z,7.30
2018-03-14T08:50:25.068Z,7.30
2018-03-14T08:52:53.255Z,7.20
2018-03-14T08:55:20.668Z,7.20
2018-03-14T08:57:48.092Z,7.20
2018-03-14T09:00:16.277Z,7.40
2018-03-14T09:02:43.707Z,7.40
2018-03-14T09:05:11.890Z,7.30
2018-03-14T09:07:39.301Z,7.30
2018-03-14T09:10:06.732Z,7.10
2018-03-14T09:12:34.147Z,7.20
2018-03-14T09:15:01.576Z,7.20
2018-03-14T09:17:29.008Z,7.20
2018-03-14T09:19:56.416Z,7.20
2018-03-14T09:22:23.844Z,7.00
2018-03-14T09:24:52.021Z,7.40
2018-03-14T09:27:19.456Z,7.40
2018-03-14T09:29:46.873Z,7.50
2018-03-14T09:32:15.808Z,7.40
2018-03-14T09:34:43.237Z,7.40
2018-03-14T09:37:10.672Z,7.30
2018-03-14T09:39:38.116Z,7.40
2018-03-14T09:42:05.516Z,7.20
2018-03-14T09:44:33.705Z,7.30
2018-03-14T09:47:01.130Z,7.30
2018-03-14T09:49:29.329Z,7.40
2018-03-14T09:51:56.756Z,7.40
2018-03-14T09:54:24.198Z,7.60
2018-03-14T09:56:51.612Z,7.70
2018-03-14T09:59:19.792Z,7.80
2018-03-14T10:01:47.216Z,7.90
2018-03-14T10:04:14.653Z,7.80
2018-03-14T10:06:42.841Z,8.00
2018-03-14T10:09:10.298Z,8.00
2018-03-14T10:11:37.676Z,8.30
2018-03-14T10:14:05.944Z,8.30
2018-03-14T10:16:33.339Z,8.30
2018-03-14T10:19:00.753Z,8.20
2018-03-14T10:21:28.164Z,8.20
2018-03-14T10:23:55.592Z,8.20
2018-03-14T10:26:23.010Z,8.40
2018-03-14T10:28:50.432Z,8.50
2018-03-14T10:31:17.848Z,8.60
2018-03-14T10:33:45.268Z,8.70
2018-03-14T10:36:12.700Z,8.60
2018-03-14T10:38:40.132Z,8.70
2018-03-14T10:41:07.569Z,9.00
2018-03-14T10:43:34.964Z,9.20
2018-03-14T10:46:02.433Z,9.70
2018-03-14T10:48:29.855Z,9.70
2018-03-14T10:50:57.288Z,9.70
2018-03-14T10:53:24.705Z,9.70
2018-03-14T10:55:52.892Z,9.20
2018-03-14T10:58:20.312Z,9.20
2018-03-14T11:00:54.344Z,9.20
2018-03-14T11:03:21.751Z,9.20
2018-03-14T11:05:49.935Z,9.50
2018-03-14T11:08:17.368Z,9.50
2018-03-14T11:10:44.785Z,9.70
2018-03-14T11:13:12.968Z,10.50
2018-03-14T11:15:40.396Z,10.50
2018-03-14T11:18:07.827Z,11.50
2018-03-14T11:20:36.008Z,12.20
2018-03-14T11:23:03.436Z,12.10
2018-03-14T11:25:31.681Z,11.80
2018-03-14T11:27:59.088Z,11.80
2018-03-14T11:30:26.504Z,12.20
2018-03-14T11:32:53.935Z,11.90
2018-03-14T11:35:21.362Z,12.20
2018-03-14T11:37:49.564Z,12.80
2018-03-14T11:40:20.964Z,12.80
2018-03-14T11:42:49.158Z,12.70
2018-03-14T11:45:16.575Z,12.70
2018-03-14T11:47:44.012Z,12.10
2018-03-14T11:50:11.440Z,12.10
2018-03-14T11:52:38.860Z,13.00
2018-03-14T11:55:07.056Z,12.30
2018-03-14T11:57:34.468Z,12.30
2018-03-14T12:00:02.669Z,12.80
2018-03-14T12:02:30.124Z,12.80
2018-03-14T12:04:57.543Z,13.60
2018-03-14T12:07:25.028Z,14.40
2018-03-14T12:09:52.384Z,14.70
2018-03-14T12:12:19.853Z,14.50
2018-03-14T12:14:47.249Z,13.90
2018-03-14T12:17:14.684Z,13.30
2018-03-14T12:19:42.100Z,14.10
2018-03-14T12:22:15.219Z,13.90
2018-03-14T12:24:42.636Z,13.10
2018-03-14T12:27:10.081Z,13.30
2018-03-14T12:29:37.508Z,13.20
2018-03-14T12:32:04.932Z,13.10
2018-03-14T12:34:32.352Z,12.60
2018-03-14T12:36:59.809Z,12.10
2018-03-14T12:39:27.224Z,11.50
2018-03-14T12:41:55.444Z,10.70
2018-03-14T12:44:22.885Z,10.60
2018-03-14T12:46:50.324Z,11.30
2018-03-14T12:49:17.764Z,11.50
2018-03-14T12:51:45.197Z,11.70
2018-03-14T12:54:12.651Z,11.80
2018-03-14T12:56:40.088Z,12.20
2018-03-14T12:59:07.489Z,12.50
2018-03-14T13:01:34.974Z,12.50
2018-03-14T13:04:02.388Z,13.40
2018-03-14T13:06:29.821Z,13.40
2018-03-14T13:08:57.241Z,12.90
2018-03-14T13:11:25.432Z,13.20
2018-03-14T13:13:52.856Z,13.20
2018-03-14T13:16:20.280Z,13.40
2018-03-14T13:18:48.512Z,14.70
2018-03-14T13:21:15.934Z,14.70
2018-03-14T13:23:43.352Z,15.20
2018-03-14T13:26:10.819Z,16.10
2018-03-14T13:28:38.257Z,16.00
2018-03-14T13:31:05.710Z,16.10
2018-03-14T13:33:33.132Z,14.80
2018-03-14T13:36:00.557Z,13.30
2018-03-14T13:38:28.004Z,12.90
2018-03-14T13:40:55.412Z,13.50
2018-03-14T13:43:23.637Z,14.40
2018-03-14T13:45:51.059Z,14.30
2018-03-14T13:48:18.498Z,13.70
2018-03-14T13:50:45.920Z,14.30
2018-03-14T13:53:13.345Z,14.90
2018-03-14T13:55:41.532Z,16.10
2018-03-14T13:58:08.977Z,16.10
2018-03-14T14:00:36.444Z,15.10
2018-03-14T14:03:03.868Z,14.70
2018-03-14T14:05:31.287Z,16.50
2018-03-14T14:07:58.737Z,17.40
2018-03-14T14:10:26.180Z,18.00
2018-03-14T14:12:53.584Z,18.50
2018-03-14T14:15:21.822Z,14.20
2018-03-14T14:17:49.254Z,14.20
2018-03-14T14:20:16.672Z,12.90
2018-03-14T14:22:44.100Z,13.50
2018-03-14T14:25:11.528Z,14.70
2018-03-14T14:27:38.943Z,15.80
2018-03-14T14:30:06.368Z,16.80
2018-03-14T14:32:33.797Z,17.20
2018-03-14T14:35:01.232Z,17.30
2018-03-14T14:37:28.656Z,16.60
2018-03-14T14:39:56.131Z,14.60
2018-03-14T14:42:23.561Z,15.50
2018-03-14T14:44:50.990Z,16.30
2018-03-14T14:47:18.411Z,16.50
2018-03-14T14:49:45.839Z,15.90
2018-03-14T14:52:14.021Z,14.10
2018-03-14T14:54:41.452Z,14.10
2018-03-14T14:57:08.900Z,14.60
2018-03-14T14:59:36.327Z,14.40
2018-03-14T15:02:03.820Z,14.70
2018-03-14T15:04:31.256Z,15.60
2018-03-14T15:06:58.773Z,15.40
2018-03-14T15:09:26.248Z,16.00
2018-03-14T15:11:53.665Z,16.00
2018-03-14T15:14:21.107Z,16.40
2018-03-14T15:16:48.539Z,16.60
2018-03-14T15:19:15.964Z,16.00
2018-03-14T15:21:43.384Z,15.00
2018-03-14T15:24:11.564Z,15.00
2018-03-14T15:26:38.996Z,15.00
2018-03-14T15:29:07.176Z,15.10
2018-03-14T15:31:34.620Z,15.10
2018-03-14T15:34:02.036Z,15.30
2018-03-14T15:36:30.245Z,15.20
2018-03-14T15:38:57.697Z,15.20
2018-03-14T15:41:25.125Z,15.10
2018-03-14T15:43:52.585Z,15.60
2018-03-14T15:46:20.013Z,15.50
2018-03-14T15:48:47.452Z,14.50
2018-03-14T15:51:14.876Z,14.20
2018-03-14T15:53:42.336Z,14.10
2018-03-14T15:56:09.756Z,14.80
2018-03-14T15:58:37.186Z,14.80
2018-03-14T16:01:04.605Z,14.50
2018-03-14T16:03:32.828Z,13.80
2018-03-14T16:06:00.279Z,13.70
2018-03-14T16:08:27.752Z,13.20
2018-03-14T16:10:55.940Z,12.80
2018-03-14T16:13:23.370Z,12.70
2018-03-14T16:15:50.792Z,12.80
2018-03-14T16:18:18.996Z,13.30
2018-03-14T16:20:46.425Z,13.30
2018-03-14T16:23:13.858Z,13.60
2018-03-14T16:25:41.290Z,13.10
2018-03-14T16:28:08.716Z,13.20
2018-03-14T16:30:36.899Z,12.30
2018-03-14T16:33:04.365Z,12.30
2018-03-14T16:35:31.784Z,12.30
2018-03-14T16:37:59.268Z,12.50
2018-03-14T16:40:26.693Z,12.00
2018-03-14T16:42:54.133Z,12.50
2018-03-14T16:45:21.591Z,11.60
2018-03-14T16:47:49.029Z,11.30
2018-03-14T16:50:16.468Z,11.10
2018-03-14T16:52:43.864Z,11.00
2018-03-14T16:55:11.446Z,10.90
2018-03-14T16:57:38.848Z,10.80
2018-03-14T17:00:06.336Z,10.30
2018-03-14T17:02:33.756Z,10.10
2018-03-14T17:05:01.180Z,9.90
2018-03-14T17:07:28.608Z,9.60
2018-03-14T17:09:56.801Z,9.40
2018-03-14T17:12:24.215Z,9.30
2018-03-14T17:14:51.632Z,9.20
2018-03-14T17:17:19.064Z,9.10
2018-03-14T17:19:47.712Z,9.00
2018-03-14T17:22:15.148Z,8.80
2018-03-14T17:24:42.595Z,8.70
2018-03-14T17:27:10.008Z,8.60
2018-03-14T17:29:37.424Z,8.50
2018-03-14T17:32:05.612Z,8.30
2018-03-14T17:34:33.037Z,8.30
2018-03-14T17:37:00.449Z,8.20
2018-03-14T17:39:27.881Z,8.10
2018-03-14T17:41:55.303Z,8.10
2018-03-14T17:44:22.716Z,8.00
2018-03-14T17:46:50.137Z,7.90
2018-03-14T17:49:18.341Z,7.80
2018-03-14T17:51:45.752Z,7.80
2018-03-14T17:54:13.180Z,7.70
2018-03-14T17:56:41.364Z,7.60
2018-03-14T17:59:08.789Z,7.60
2018-03-14T18:01:36.211Z,7.50
2018-03-14T18:04:03.621Z,7.40
2018-03-14T18:06:31.064Z,7.40
2018-03-14T18:08:58.528Z,7.40
2018-03-14T18:11:25.934Z,7.40
2018-03-14T18:13:53.355Z,7.30
2018-03-14T18:16:20.763Z,7.20
2018-03-14T18:18:48.957Z,7.20
2018-03-14T18:21:16.389Z,7.20
2018-03-14T18:23:43.860Z,7.10
2018-03-14T18:26:11.292Z,7.00
2018-03-14T18:28:38.711Z,7.00
2018-03-14T18:31:06.149Z,6.90
2018-03-14T18:33:33.560Z,6.90
2018-03-14T18:36:01.764Z,6.80
2018-03-14T18:38:29.228Z,6.80
2018-03-14T18:40:56.642Z,6.70
2018-03-14T18:43:24.052Z,6.70
2018-03-14T18:45:52.240Z,6.60
2018-03-14T18:48:19.685Z,6.60
2018-03-14T18:50:47.104Z,6.70
2018-03-14T18:53:15.304Z,6.60
2018-03-14T18:55:42.722Z,6.60
2018-03-14T18:58:10.132Z,6.50
2018-03-14T19:00:38.349Z,6.40
2018-03-14T19:03:05.776Z,6.40
2018-03-14T19:05:33.176Z,6.30
2018-03-14T19:08:01.365Z,6.20
2018-03-14T19:10:28.801Z,6.20
2018-03-14T19:12:56.216Z,6.10
2018-03-14T19:15:24.425Z,6.10
2018-03-14T19:17:51.844Z,6.00
2018-03-14T19:20:19.286Z,6.00
2018-03-14T19:22:47.436Z,5.90
2018-03-14T19:25:14.882Z,5.90
2018-03-14T19:27:43.112Z,5.70
2018-03-14T19:30:10.503Z,5.70
2018-03-14T19:32:37.924Z,5.70
2018-03-14T19:35:05.339Z,5.80
2018-03-14T19:37:33.546Z,5.70
2018-03-14T19:40:00.964Z,5.60
2018-03-14T19:42:28.398Z,5.60
2018-03-14T19:44:56.587Z,5.50
2018-03-14T19:47:24.029Z,5.50
2018-03-14T19:49:51.468Z,5.50
2018-03-14T19:52:18.916Z,5.50
2018-03-14T19:54:46.380Z,5.40
2018-03-14T19:57:13.792Z,5.40
2018-03-14T19:59:41.228Z,5.30
2018-03-14T20:02:08.660Z,5.30
2018-03-14T20:04:36.088Z,5.30
2018-03-14T20:07:03.534Z,5.30
2018-03-14T20:09:30.972Z,5.20
2018-03-14T20:11:58.417Z,5.10
2018-03-14T20:14:25.837Z,5.10
2018-03-14T20:16:54.025Z,5.00
2018-03-14T20:19:21.459Z,5.00
2018-03-14T20:21:48.881Z,5.00
2018-03-14T20:24:17.082Z,4.80
2018-03-14T20:26:44.504Z,4.80
2018-03-14T20:29:12.596Z,4.90
2018-03-14T20:31:40.024Z,4.90
2018-03-14T20:34:07.481Z,4.80
2018-03-14T20:36:34.905Z,4.80
2018-03-14T20:39:02.388Z,4.70
2018-03-14T20:41:29.778Z,4.50
2018-03-14T20:43:58.051Z,4.40
2018-03-14T20:46:25.492Z,4.30
2018-03-14T20:48:52.936Z,4.30
2018-03-14T20:51:20.419Z,4.30
2018-03-14T20:53:48.599Z,4.20
2018-03-14T20:56:16.045Z,4.20
2018-03-14T20:58:43.477Z,4.30
2018-03-14T21:01:10.930Z,4.30
2018-03-14T21:03:39.126Z,4.40
2018-03-14T21:06:06.620Z,4.40
2018-03-14T21:08:34.012Z,4.40
2018-03-14T21:11:01.451Z,4.50
2018-03-14T21:13:28.873Z,4.50
2018-03-14T21:15:56.299Z,4.40
2018-03-14T21:18:24.495Z,4.50
2018-03-14T21:20:51.940Z,4.50
2018-03-14T21:23:19.376Z,4.50
2018-03-14T21:25:46.830Z,4.50
2018-03-14T21:28:14.288Z,4.60
2018-03-14T21:30:41.718Z,4.50
2018-03-14T21:33:09.146Z,4.50
2018-03-14T21:35:36.585Z,4.50
2018-03-14T21:38:04.016Z,4.50
2018-03-14T21:40:31.492Z,4.40
2018-03-14T21:42:58.951Z,4.40
2018-03-14T21:45:27.176Z,4.40
2018-03-14T21:47:54.620Z,4.40
2018-03-14T21:50:22.182Z,4.40
2018-03-14T21:52:49.634Z,4.40
2018-03-14T21:55:17.084Z,4.30
2018-03-14T21:57:44.500Z,4.30
2018-03-14T22:00:11.983Z,4.20
2018-03-14T22:02:39.373Z,4.10
2018-03-14T22:05:06.796Z,4.10
2018-03-14T22:07:34.233Z,4.00
2018-03-14T22:10:01.653Z,4.00
2018-03-14T22:12:29.894Z,3.90
2018-03-14T22:14:57.296Z,3.80
2018-03-14T22:17:24.739Z,3.80
2018-03-14T22:19:52.524Z,3.80
2018-03-14T22:22:19.928Z,3.80
2018-03-14T22:24:47.358Z,3.80
2018-03-14T22:27:14.796Z,3.80
2018-03-14T22:29:42.242Z,3.80
2018-03-14T22:32:09.680Z,3.80
2018-03-14T22:34:37.096Z,3.80
2018-03-14T22:37:04.592Z,3.90
2018-03-14T22:39:32.019Z,3.80
2018-03-14T22:41:59.454Z,3.80
2018-03-14T22:44:26.897Z,3.70
2018-03-14T22:46:54.340Z,3.70
2018-03-14T22:49:21.771Z,3.80
2018-03-14T22:51:49.203Z,3.80
2018-03-14T22:54:16.640Z,3.70
2018-03-14T22:56:44.060Z,3.70
2018-03-14T22:59:12.256Z,3.70
2018-03-14T23:01:39.707Z,3.60
2018-03-14T23:04:07.128Z,3.60
2018-03-14T23:06:34.590Z,3.50
2018-03-14T23:09:02.004Z,3.50
2018-03-14T23:11:29.436Z,3.50
2018-03-14T23:13:56.879Z,3.50
2018-03-14T23:16:25.883Z,3.40
2018-03-14T23:18:53.320Z,3.40
2018-03-14T23:21:20.755Z,3.50
2018-03-14T23:23:48.200Z,3.50
2018-03-14T23:26:15.612Z,3.40
2018-03-14T23:28:43.044Z,3.40
2018-03-14T23:31:11.241Z,3.40
2018-03-14T23:33:38.664Z,3.40
2018-03-14T23:36:06.853Z,3.40
2018-03-14T23:38:34.286Z,3.40
2018-03-14T23:41:01.702Z,3.40
2018-03-14T23:43:29.892Z,3.40
2018-03-14T23:45:57.345Z,3.40
2018-03-14T23:48:24.788Z,3.40
2018-03-14T23:50:52.240Z,3.40
2018-03-14T23:53:19.661Z,3.30
2018-03-14T23:55:47.098Z,3.30
2018-03-14T23:58:14.533Z,3.20
